Mount Carroll, IL

11:37 AM CDT on May 24, 2015 (GMT -0500)
Tri-Township | | Change Station
CLOSE
Current Station
Airport
Location: Savanna,
Elevation: 617 ft
Nearby Weather Stations

Elev 617 ft 42.05 °N, 90.11 °W | Updated 22 minutes ago

Overcast
Overcast
64 °F
Feels Like 64 °F
N
13
Wind Variable Wind from East

Today
High -- | Low -- °F
--% Chance of Precip.
Yesterday
High -- | Low -- °F
Precip. -- in
5:31 AM 8:22 PM
Waxing Crescent, 40% visible
Pressure 30.05 in
Visibility 10.0 miles
Clouds Scattered Clouds 4100 ft
Mostly Cloudy 5000 ft
Overcast 9000 ft
Dew Point 57 °F
Humidity 77%
Rainfall 0.05 in
Snow Depth Not available.
UV 3 out of 12
Pollen 6.30 out of 12
Air Quality Not available.
Flu Activity Sporadic
METAR KSFY 241615Z AUTO 08011KT 10SM -DZ SCT041 BKN050 OVC090 18/14 A3005 RMK AO2 T01780138

More Conditions Fewer Conditions

Pressure 30.05 in
Visibility 10.0 miles
Clouds Scattered Clouds 4100 ft
Mostly Cloudy 5000 ft
Overcast 9000 ft
Dew Point 57 °F
Humidity 77%
Rainfall 0.05 in
Snow Depth Not available.
UV 3 out of 12
Pollen 6.30 out of 12
Air Quality Not available.
Flu Activity Sporadic
METAR KSFY 241615Z AUTO 08011KT 10SM -DZ SCT041 BKN050 OVC090 18/14 A3005 RMK AO2 T01780138

More Conditions Fewer Conditions

10-Day Weather Forecast

Almanac

Astronomy

May. 24, 2015 Rise Set
Actual Time
Civil Twilight
Nautical Twilight
Astronomical Twilight
Moon
Length of Visible Light
Length of Day
Tomorrow will be .
, % of the Moon is Illuminated

Today's Extremes

State Highs State Lows

Community

WunderPhotos

Upload Photos

1,823,777 photos uploaded!

WunderBlogs® & News

Nearby

Air Quality

  Air Quality AQ Index Pollutant
Not available.

Snow Depth

Station Depth Elevation

Earthquake Activity

City Distance Mag. Time & Date
Minimum magnitude displayed is 2.5.

Coastal Water Temperatures

Place Temperature

Stations

Nearby Weather Stations

Station Location Temp. Windchill Dew Point Humidity Wind Precip. Elev Updated Type